Time;durP1;ratioP1;P1;durP2;ratioP2;P2;SDS_P1;SDS_P2;PMS_P1;PMS_P2;Temp;Humidity;BMP_temperature;BMP_pressure;BME280_temperature;BME280_humidity;BME280_pressure;Samples;Min_cycle;Max_cycle;Signal;HPM_P1;HPM_P2
2022/02/15 00:01:17;;;;;;;5.97;4.45;;;;;;;-139.48;100.00;61774.03;5034706;28;20112;-77
2022/02/15 00:04:00;;;;;;;4.95;3.90;;;;;;;-139.48;100.00;61774.03;5019502;28;20048;-77
2022/02/15 00:06:44;;;;;;;7.65;4.10;;;;;;;-139.48;100.00;61774.03;5019028;28;20052;-77
2022/02/15 00:09:28;;;;;;;6.80;4.28;;;;;;;-139.48;100.00;61774.03;5019753;28;20473;-77
2022/02/15 00:12:12;;;;;;;7.63;4.90;;;;;;;-139.48;100.00;61774.03;5034195;28;20152;-77
2022/02/15 00:14:56;;;;;;;7.00;4.53;;;;;;;-139.48;100.00;61774.03;5034724;28;20091;-77
2022/02/15 00:17:41;;;;;;;4.90;4.40;;;;;;;-139.48;100.00;61774.03;5019197;28;20045;-76
2022/02/15 00:20:26;;;;;;;6.68;4.78;;;;;;;-139.48;100.00;61774.03;5019802;28;20052;-76
2022/02/15 00:23:11;;;;;;;6.45;3.92;;;;;;;-139.48;100.00;61774.03;5035926;28;20100;-77
2022/02/15 00:25:55;;;;;;;7.55;4.25;;;;;;;-139.48;100.00;61774.03;5036096;28;20048;-77
2022/02/15 00:28:39;;;;;;;;;;;;;;;-139.48;100.00;61774.03;5036766;28;20124;-77
2022/02/15 00:31:23;;;;;;;6.10;4.67;;;;;;;-139.48;100.00;61774.03;5033994;28;19959;-77
2022/02/15 00:34:07;;;;;;;;;;;;;;;-139.48;100.00;61774.03;5036319;28;20052;-77
2022/02/15 00:36:51;;;;;;;5.32;4.40;;;;;;;-139.48;100.00;61774.03;5035777;28;19919;-77
2022/02/15 00:39:35;;;;;;;5.60;4.32;;;;;;;-139.48;100.00;61774.03;5036068;28;20048;-77
2022/02/15 00:42:19;;;;;;;6.57;4.43;;;;;;;-139.48;100.00;61774.03;5020607;28;20463;-76
2022/02/15 00:45:03;;;;;;;;;;;;;;;-139.48;100.00;61774.03;5020439;28;20075;-77
2022/02/15 00:47:47;;;;;;;7.55;4.63;;;;;;;-139.48;100.00;61774.03;5035192;28;19963;-77
2022/02/15 00:50:31;;;;;;;5.72;4.03;;;;;;;-139.48;100.00;61774.03;5035020;28;20056;-76
2022/02/15 00:53:15;;;;;;;6.53;4.38;;;;;;;-139.48;100.00;61774.03;5020158;28;20490;-77
2022/02/15 00:55:59;;;;;;;5.72;3.60;;;;;;;-139.48;100.00;61774.03;5020964;28;20099;-77
2022/02/15 00:58:43;;;;;;;4.78;4.03;;;;;;;-139.48;100.00;61774.03;5035489;28;20052;-77
2022/02/15 01:01:27;;;;;;;;;;;;;;;-139.48;100.00;61774.03;5020235;28;20094;-77
2022/02/15 01:04:11;;;;;;;5.30;3.60;;;;;;;-139.48;100.00;61774.03;5020143;28;20407;-78
2022/02/15 01:06:55;;;;;;;6.75;4.82;;;;;;;-139.48;100.00;61774.03;5035331;28;20555;-77
2022/02/15 01:09:39;;;;;;;5.78;4.05;;;;;;;-139.48;100.00;61774.03;5020834;28;20107;-77
2022/02/15 01:12:24;;;;;;;7.28;4.95;;;;;;;-139.48;100.00;61774.03;5035509;28;20464;-77
2022/02/15 01:15:08;;;;;;;6.78;4.50;;;;;;;-139.48;100.00;61774.03;5023998;28;20432;-77
2022/02/15 01:17:52;;;;;;;9.43;4.88;;;;;;;-139.48;100.00;61774.03;5023616;28;20048;-78
2022/02/15 01:20:36;;;;;;;6.07;4.68;;;;;;;-139.48;100.00;61774.03;5010010;28;20052;-76
2022/02/15 01:23:20;;;;;;;6.10;4.22;;;;;;;-139.48;100.00;61774.03;5024020;28;20053;-77
2022/02/15 01:26:04;;;;;;;6.65;4.63;;;;;;;-139.48;100.00;61774.03;5023922;28;20044;-77
2022/02/15 01:28:48;;;;;;;7.22;4.45;;;;;;;-139.48;100.00;61774.03;5024462;28;20056;-78
2022/02/15 01:31:32;;;;;;;6.47;4.50;;;;;;;-139.48;100.00;61774.03;5038989;28;20052;-77
2022/02/15 01:34:16;;;;;;;6.57;4.47;;;;;;;-139.48;100.00;61774.03;5010350;28;20512;-77
2022/02/15 01:37:00;;;;;;;6.75;4.18;;;;;;;-139.48;100.00;61774.03;5023616;28;20049;-75
2022/02/15 01:39:44;;;;;;;5.75;4.22;;;;;;;-139.48;100.00;61774.03;5039665;28;20052;-78
2022/02/15 01:42:28;;;;;;;5.93;3.85;;;;;;;-139.48;100.00;61774.03;5024083;28;20555;-78
2022/02/15 01:45:12;;;;;;;4.72;3.85;;;;;;;-139.48;100.00;61774.03;5024961;28;20499;-77
2022/02/15 01:47:56;;;;;;;5.93;4.10;;;;;;;-139.48;100.00;61774.03;5024209;28;20559;-78
2022/02/15 01:50:41;;;;;;;;;;;;;;;-139.48;100.00;61774.03;5023997;28;20063;-78
2022/02/15 01:53:25;;;;;;;5.25;3.67;;;;;;;-139.48;100.00;61774.03;5039107;28;19970;-76
2022/02/15 01:56:15;;;;;;;7.35;3.90;;;;;;;-139.48;100.00;61774.03;5009204;28;20421;-76
2022/02/15 01:58:59;;;;;;;7.57;3.88;;;;;;;-139.48;100.00;61774.03;5009836;28;20075;-77
2022/02/15 02:01:43;;;;;;;8.00;4.03;;;;;;;-139.48;100.00;61774.03;5009525;28;20047;-77
2022/02/15 02:07:29;;;;;;;5.85;3.70;;;;;;;-139.48;100.00;61774.03;5039646;28;19928;-78
2022/02/15 02:10:14;;;;;;;6.25;3.72;;;;;;;-139.48;100.00;61774.03;5038566;28;20088;-77
2022/02/15 02:12:58;;;;;;;6.63;4.47;;;;;;;-139.48;100.00;61774.03;5038965;28;20075;-76
2022/02/15 02:15:45;;;;;;;7.43;4.32;;;;;;;-139.48;100.00;61774.03;5038730;28;20049;-78
2022/02/15 02:18:29;;;;;;;6.43;3.53;;;;;;;-139.48;100.00;61774.03;5023822;28;20079;-77
2022/02/15 02:21:14;;;;;;;;;;;;;;;-139.48;100.00;61774.03;5024142;28;20080;-77
2022/02/15 02:23:59;;;;;;;6.53;3.97;;;;;;;-139.48;100.00;61774.03;5037789;28;19924;-77
2022/02/15 02:26:44;;;;;;;11.40;3.85;;;;;;;-139.48;100.00;61774.03;5023614;28;20060;-78
2022/02/15 02:29:28;;;;;;;4.43;3.65;;;;;;;-139.48;100.00;61774.03;5024121;28;20093;-77
2022/02/15 02:32:12;;;;;;;6.25;4.13;;;;;;;-139.48;100.00;61774.03;5026166;28;20417;-77
2022/02/15 02:34:56;;;;;;;;;;;;;;;-139.48;100.00;61774.03;5028251;28;20096;-77
2022/02/15 02:37:40;;;;;;;5.25;3.83;;;;;;;-139.48;100.00;61774.03;5041430;28;19920;-77
2022/02/15 02:40:24;;;;;;;6.68;4.00;;;;;;;-139.48;100.00;61774.03;5024942;28;20120;-78
2022/02/15 02:43:08;;;;;;;5.65;3.88;;;;;;;-139.48;100.00;61774.03;5012280;28;20087;-78
2022/02/15 02:45:52;;;;;;;;;;;;;;;-139.48;100.00;61774.03;5040011;28;20052;-77
2022/02/15 02:48:36;;;;;;;6.43;3.87;;;;;;;-139.48;100.00;61774.03;5039887;28;20320;-77
2022/02/15 02:51:20;;;;;;;5.60;3.55;;;;;;;-139.48;100.00;61774.03;5038971;28;20262;-77
2022/02/15 02:54:04;;;;;;;6.97;3.67;;;;;;;-139.48;100.00;61774.03;5023966;28;20051;-78
2022/02/15 02:56:47;;;;;;;5.95;3.70;;;;;;;-139.48;100.00;61774.03;5024263;28;20076;-78
2022/02/15 02:59:31;;;;;;;5.13;3.38;;;;;;;-139.48;100.00;61774.03;5023523;28;20072;-77
2022/02/15 03:02:16;;;;;;;7.20;3.33;;;;;;;-139.48;100.00;61774.03;5038816;28;20512;-75
2022/02/15 03:05:00;;;;;;;6.40;3.45;;;;;;;-139.48;100.00;61774.03;5023119;28;20052;-77
2022/02/15 03:07:44;;;;;;;;;;;;;;;-139.48;100.00;61774.03;5039126;28;20045;-78
2022/02/15 03:10:28;;;;;;;6.63;3.37;;;;;;;-139.48;100.00;61774.03;5038532;28;20074;-77
2022/02/15 03:13:12;;;;;;;5.32;4.05;;;;;;;-139.48;100.00;61774.03;5037866;28;20524;-77
2022/02/15 03:15:56;;;;;;;8.93;3.53;;;;;;;-139.48;100.00;61774.03;5022670;28;20083;-77
2022/02/15 03:18:40;;;;;;;;;;;;;;;-139.48;100.00;61774.03;5038097;28;20068;-78
2022/02/15 03:21:24;;;;;;;11.40;4.50;;;;;;;-139.48;100.00;61774.03;5038246;28;19978;-78
2022/02/15 03:24:09;;;;;;;11.63;4.30;;;;;;;-139.48;100.00;61774.03;5021997;28;20476;-77
2022/02/15 03:26:53;;;;;;;7.50;4.13;;;;;;;-139.48;100.00;61774.03;5022049;28;20072;-77
2022/02/15 03:29:36;;;;;;;;;;;;;;;-139.48;100.00;61774.03;5009538;28;20044;-77
2022/02/15 03:32:21;;;;;;;8.90;3.95;;;;;;;-139.48;100.00;61774.03;5021686;28;19919;-77
2022/02/15 03:35:05;;;;;;;6.45;4.28;;;;;;;-139.48;100.00;61774.03;5020767;28;20425;-77
2022/02/15 03:37:49;;;;;;;5.75;4.15;;;;;;;-139.48;100.00;61774.03;5021437;28;20056;-77
2022/02/15 03:43:36;;;;;;;9.43;5.72;;;;;;;-139.48;100.00;61774.03;5034990;28;19919;-77
2022/02/15 03:46:21;;;;;;;10.15;6.20;;;;;;;-139.48;100.00;61774.03;5021204;28;20130;-77
2022/02/15 03:49:11;;;;;;;12.73;5.82;;;;;;;-139.48;100.00;61774.03;5022819;28;20099;-78
2022/02/15 03:51:55;;;;;;;13.45;6.72;;;;;;;-139.48;100.00;61774.03;5020526;28;20045;-77
2022/02/15 03:54:39;;;;;;;;;;;;;;;-139.48;100.00;61774.03;5022516;28;20087;-78
2022/02/15 03:57:23;;;;;;;8.90;5.40;;;;;;;-139.48;100.00;61774.03;5037110;28;19974;-78
2022/02/15 04:00:07;;;;;;;;;;;;;;;-139.48;100.00;61774.03;5021423;28;20286;-77
2022/02/15 04:02:51;;;;;;;11.68;7.15;;;;;;;-139.48;100.00;61774.03;5021457;28;19919;-77
2022/02/15 04:05:35;;;;;;;;;;;;;;;-139.48;100.00;61774.03;5007193;28;20048;-77
2022/02/15 04:08:19;;;;;;;10.90;7.32;;;;;;;-139.48;100.00;61774.03;5034854;28;19920;-77
2022/02/15 04:11:03;;;;;;;9.65;5.35;;;;;;;-139.48;100.00;61774.03;5036638;28;20128;-78
2022/02/15 04:13:47;;;;;;;8.90;5.72;;;;;;;-139.48;100.00;61774.03;5036795;28;20125;-77
2022/02/15 04:16:31;;;;;;;;;;;;;;;-139.48;100.00;61774.03;5037865;28;20044;-78
2022/02/15 04:19:15;;;;;;;8.45;5.22;;;;;;;-139.48;100.00;61774.03;5037090;28;20280;-77
2022/02/15 04:21:58;;;;;;;;;;;;;;;-139.48;100.00;61774.03;5009273;28;20111;-77
2022/02/15 04:24:42;;;;;;;8.57;4.82;;;;;;;-139.48;100.00;61774.03;5035961;28;19920;-78
2022/02/15 04:27:28;;;;;;;9.05;4.80;;;;;;;-139.48;100.00;61774.03;5021522;28;20107;-78
2022/02/15 04:30:12;;;;;;;9.68;4.75;;;;;;;-139.48;100.00;61774.03;5021545;28;20103;-77
2022/02/15 04:32:56;;;;;;;7.68;4.40;;;;;;;-139.48;100.00;61774.03;5036227;28;20055;-77
2022/02/15 04:35:39;;;;;;;10.35;4.25;;;;;;;-139.48;100.00;61774.03;5021068;28;20049;-78
2022/02/15 04:38:23;;;;;;;7.70;4.88;;;;;;;-139.48;100.00;61774.03;5021394;28;20512;-77
2022/02/15 04:41:07;;;;;;;;;;;;;;;-139.48;100.00;61774.03;5021526;28;20048;-77
2022/02/15 04:43:51;;;;;;;8.85;4.50;;;;;;;-139.48;100.00;61774.03;5020422;28;19962;-77
2022/02/15 04:46:35;;;;;;;7.78;3.85;;;;;;;-139.48;100.00;61774.03;5020562;28;20071;-77
2022/02/15 04:49:19;;;;;;;7.15;4.22;;;;;;;-139.48;100.00;61774.03;5036213;28;20076;-76
2022/02/15 04:52:03;;;;;;;9.13;4.40;;;;;;;-139.48;100.00;61774.03;5035779;28;20072;-76
2022/02/15 04:54:48;;;;;;;8.30;4.70;;;;;;;-139.48;100.00;61774.03;5020787;28;20057;-78
2022/02/15 04:57:31;;;;;;;10.15;4.45;;;;;;;-139.48;100.00;61774.03;5020577;28;20049;-76
2022/02/15 05:00:16;;;;;;;9.38;4.53;;;;;;;-139.48;100.00;61774.03;5020252;28;20075;-77
2022/02/15 05:03:00;;;;;;;13.02;3.85;;;;;;;-139.48;100.00;61774.03;5019195;28;20052;-77
2022/02/15 05:05:44;;;;;;;7.85;4.40;;;;;;;-139.48;100.00;61774.03;5019810;28;20573;-77
2022/02/15 05:08:28;;;;;;;7.10;4.20;;;;;;;-139.48;100.00;61774.03;5006492;28;20068;-78
2022/02/15 05:11:11;;;;;;;6.15;4.13;;;;;;;-139.48;100.00;61774.03;5019605;28;20044;-77
2022/02/15 05:13:55;;;;;;;6.00;3.83;;;;;;;-139.48;100.00;61774.03;5021380;28;20136;-78
2022/02/15 05:16:40;;;;;;;6.35;4.25;;;;;;;-139.48;100.00;61774.03;5035590;28;20064;-77
2022/02/15 05:19:24;;;;;;;9.88;4.65;;;;;;;-139.48;100.00;61774.03;5021387;28;20047;-77
2022/02/15 05:22:08;;;;;;;10.13;4.88;;;;;;;-139.48;100.00;61774.03;5019338;28;20044;-77
2022/02/15 05:24:52;;;;;;;11.00;4.75;;;;;;;-139.48;100.00;61774.03;5035649;28;20057;-77
2022/02/15 05:27:35;;;;;;;7.80;4.88;;;;;;;-139.48;100.00;61774.03;5020349;28;20477;-77
2022/02/15 05:30:19;;;;;;;7.55;4.18;;;;;;;-139.48;100.00;61774.03;5036235;28;20102;-77
2022/02/15 05:33:04;;;;;;;14.35;5.43;;;;;;;-139.48;100.00;61774.03;5036288;28;20550;-77
2022/02/15 05:35:47;;;;;;;7.03;4.53;;;;;;;-139.48;100.00;61774.03;5021564;28;20053;-77
2022/02/15 05:38:31;;;;;;;;;;;;;;;-139.48;100.00;61774.03;5036501;28;20107;-76
2022/02/15 05:41:15;;;;;;;10.70;5.28;;;;;;;-139.48;100.00;61774.03;5036306;28;20350;-77
2022/02/15 05:44:00;;;;;;;11.02;5.07;;;;;;;-139.48;100.00;61774.03;5020002;28;20099;-78
2022/02/15 05:46:43;;;;;;;9.55;4.93;;;;;;;-139.48;100.00;61774.03;5036140;28;20457;-78
2022/02/15 05:50:49;;;;;;;6.57;4.80;;;;;;;-139.48;100.00;61774.03;5034936;28;20041;-76
2022/02/15 05:52:38;;;;;;;11.35;4.90;;;;;;;-139.48;100.00;61774.03;5022879;28;20087;-78
2022/02/15 05:55:22;;;;;;;8.57;5.22;;;;;;;-139.48;100.00;61774.03;5033594;28;20136;-77
2022/02/15 05:58:06;;;;;;;8.23;5.40;;;;;;;-139.48;100.00;61774.03;5034249;28;20413;-77
2022/02/15 06:00:50;;;;;;;;;;;;;;;-139.48;100.00;61774.03;5008971;28;20051;-77
2022/02/15 06:06:41;;;;;;;11.07;5.50;;;;;;;-139.48;100.00;61774.03;5024093;28;20044;-77
2022/02/15 06:09:25;;;;;;;8.95;5.38;;;;;;;-139.48;100.00;61774.03;5036386;28;20577;-77
2022/02/15 06:12:09;;;;;;;10.98;6.63;;;;;;;-139.48;100.00;61774.03;5021741;28;20060;-75
2022/02/15 06:14:53;;;;;;;11.20;7.22;;;;;;;-139.48;100.00;61774.03;5007378;28;20393;-76
2022/02/15 06:17:37;;;;;;;10.30;6.78;;;;;;;-139.48;100.00;61774.03;5021155;28;20099;-76
2022/02/15 06:20:21;;;;;;;;;;;;;;;-139.48;100.00;61774.03;5022738;28;20417;-77
2022/02/15 06:23:05;;;;;;;13.73;6.13;;;;;;;-139.48;100.00;61774.03;5037162;28;19962;-77
2022/02/15 06:25:49;;;;;;;8.85;6.07;;;;;;;-139.48;100.00;61774.03;5021916;28;20076;-74
2022/02/15 06:28:33;;;;;;;11.48;6.25;;;;;;;-139.48;100.00;61774.03;5008328;28;20048;-77
2022/02/15 06:31:17;;;;;;;;;;;;;;;-139.48;100.00;61774.03;5037493;28;20512;-76
2022/02/15 06:34:02;;;;;;;8.68;6.05;;;;;;;-139.48;100.00;61774.03;5035112;28;20396;-77
2022/02/15 06:36:46;;;;;;;11.00;6.20;;;;;;;-139.48;100.00;61774.03;5035875;28;20103;-77
2022/02/15 06:39:30;;;;;;;;;;;;;;;-139.48;100.00;61774.03;5036023;28;20087;-77
2022/02/15 06:42:14;;;;;;;13.57;6.00;;;;;;;-139.48;100.00;61774.03;5035395;28;20319;-75
2022/02/15 06:44:58;;;;;;;8.30;6.15;;;;;;;-139.48;100.00;61774.03;5035628;28;20083;-76
2022/02/15 06:47:42;;;;;;;;;;;;;;;-139.48;100.00;61774.03;5020495;28;20088;-77
2022/02/15 06:50:26;;;;;;;10.67;5.90;;;;;;;-139.48;100.00;61774.03;5035340;28;19920;-76
2022/02/15 06:53:10;;;;;;;;;;;;;;;-139.48;100.00;61774.03;5008355;28;20095;-77
2022/02/15 06:55:54;;;;;;;10.82;5.80;;;;;;;-139.48;100.00;61774.03;5035502;28;19919;-77
2022/02/15 06:58:38;;;;;;;10.38;5.68;;;;;;;-139.48;100.00;61774.03;5039406;28;20505;-77
2022/02/15 07:01:22;;;;;;;11.98;6.35;;;;;;;-139.48;100.00;61774.03;5023751;28;20191;-77
2022/02/15 07:04:05;;;;;;;11.70;6.47;;;;;;;-139.48;100.00;61774.03;5021677;28;20048;-77
2022/02/15 07:06:49;;;;;;;11.15;6.45;;;;;;;-139.48;100.00;61774.03;5006806;28;20053;-77
2022/02/15 07:09:33;;;;;;;9.20;6.03;;;;;;;-139.48;100.00;61774.03;5019966;28;20448;-77
2022/02/15 07:12:17;;;;;;;14.18;6.65;;;;;;;-139.48;100.00;61774.03;5034669;28;20132;-77
2022/02/15 07:15:01;;;;;;;10.13;6.50;;;;;;;-139.48;100.00;61774.03;5019830;28;20048;-77
2022/02/15 07:17:45;;;;;;;8.40;5.72;;;;;;;-139.48;100.00;61774.03;5034977;28;20417;-77
2022/02/15 07:20:29;;;;;;;8.07;5.70;;;;;;;-139.48;100.00;61774.03;5035141;28;20499;-77
2022/02/15 07:23:13;;;;;;;9.73;6.18;;;;;;;-139.48;100.00;61774.03;5034980;28;20160;-76
2022/02/15 07:25:57;;;;;;;11.82;6.00;;;;;;;-139.48;100.00;61774.03;5034521;28;20104;-77
2022/02/15 07:28:41;;;;;;;12.65;5.45;;;;;;;-139.48;100.00;61774.03;5019901;28;20103;-77
2022/02/15 07:31:25;;;;;;;11.27;6.20;;;;;;;-139.48;100.00;61774.03;5005945;28;20048;-76
2022/02/15 07:34:09;;;;;;;;;;;;;;;-139.48;100.00;61774.03;5006160;28;20060;-77
2022/02/15 07:36:53;;;;;;;11.10;5.65;;;;;;;-139.48;100.00;61774.03;5019239;28;19967;-77
2022/02/15 07:39:37;;;;;;;;;;;;;;;-139.48;100.00;61774.03;5019859;28;20453;-77
2022/02/15 07:42:21;;;;;;;9.32;6.13;;;;;;;-139.48;100.00;61774.03;5034275;28;20034;-77
2022/02/15 07:45:05;;;;;;;11.32;6.80;;;;;;;-139.48;100.00;61774.03;5005656;28;20044;-77
2022/02/15 07:47:51;;;;;;;11.75;6.00;;;;;;;-139.48;100.00;61774.03;5034786;28;20171;-77
2022/02/15 07:50:35;;;;;;;11.52;6.50;;;;;;;-139.48;100.00;61774.03;5005775;28;20100;-77
2022/02/15 07:53:20;;;;;;;11.25;6.45;;;;;;;-139.48;100.00;61774.03;5005171;28;20056;-77
2022/02/15 07:56:04;;;;;;;10.02;6.30;;;;;;;-139.48;100.00;61774.03;5034589;28;20041;-77
2022/02/15 07:58:48;;;;;;;;;;;;;;;-139.48;100.00;61774.03;5034300;28;20071;-76
2022/02/15 08:01:32;;;;;;;10.77;6.28;;;;;;;-139.48;100.00;61774.03;5019010;28;19983;-76
2022/02/15 08:04:16;;;;;;;10.93;6.65;;;;;;;-139.48;100.00;61774.03;5034181;28;20049;-77
2022/02/15 08:07:03;;;;;;;11.65;6.57;;;;;;;-139.48;100.00;61774.03;5033545;28;20099;-76
2022/02/15 08:09:47;;;;;;;11.48;6.78;;;;;;;-139.48;100.00;61774.03;5019386;28;20417;-77
2022/02/15 08:12:31;;;;;;;10.93;6.32;;;;;;;-139.48;100.00;61774.03;5033857;28;20100;-77
2022/02/15 08:15:14;;;;;;;;;;;;;;;-139.48;100.00;61774.03;5019074;28;20052;-77
2022/02/15 08:18:00;;;;;;;9.85;6.80;;;;;;;-139.48;100.00;61774.03;5033098;28;20344;-77
2022/02/15 08:20:44;;;;;;;9.82;6.00;;;;;;;-139.48;100.00;61774.03;5018791;28;20048;-77
2022/02/15 08:23:28;;;;;;;13.38;7.00;;;;;;;-139.48;100.00;61774.03;5033521;28;20099;-77
2022/02/15 08:26:12;;;;;;;;;;;;;;;-139.48;100.00;61774.03;5032558;28;20049;-77
2022/02/15 08:28:56;;;;;;;10.23;6.30;;;;;;;-139.48;100.00;61774.03;5033631;28;19920;-77
2022/02/15 08:31:40;;;;;;;10.30;6.47;;;;;;;-139.48;100.00;61774.03;5018485;28;20474;-77
2022/02/15 08:34:24;;;;;;;11.52;6.07;;;;;;;-139.48;100.00;61774.03;5018308;28;20048;-77
2022/02/15 08:37:07;;;;;;;14.82;6.05;;;;;;;-139.48;100.00;61774.03;5018612;28;20095;-76
2022/02/15 08:39:51;;;;;;;9.98;5.85;;;;;;;-139.48;100.00;61774.03;5018175;28;20405;-77
2022/02/15 08:42:35;;;;;;;9.52;5.82;;;;;;;-139.48;100.00;61774.03;5018024;28;20087;-77
2022/02/15 08:45:19;;;;;;;8.55;6.13;;;;;;;-139.48;100.00;61774.03;5019491;28;20056;-76
2022/02/15 08:48:04;;;;;;;9.95;6.53;;;;;;;-139.48;100.00;61774.03;5018098;28;20394;-76
2022/02/15 08:50:48;;;;;;;8.60;6.35;;;;;;;-139.48;100.00;61774.03;5004149;28;20174;-77
2022/02/15 08:53:33;;;;;;;12.68;6.60;;;;;;;-139.48;100.00;61774.03;5018807;28;20456;-77
2022/02/15 08:56:18;;;;;;;13.38;6.72;;;;;;;-139.48;100.00;61774.03;5019006;28;20095;-77
2022/02/15 08:59:02;;;;;;;8.50;5.07;;;;;;;-139.48;100.00;61774.03;5018307;28;20127;-76
2022/02/15 09:01:47;;;;;;;8.25;5.57;;;;;;;-139.48;100.00;61774.03;5018425;28;20413;-77
2022/02/15 09:04:31;;;;;;;13.50;5.95;;;;;;;-139.48;100.00;61774.03;5018563;28;20052;-77
2022/02/15 09:07:15;;;;;;;9.70;5.25;;;;;;;-139.48;100.00;61774.03;5033020;28;20056;-77
2022/02/15 09:09:59;;;;;;;10.20;5.50;;;;;;;-139.48;100.00;61774.03;5018479;28;20409;-75
2022/02/15 09:12:43;;;;;;;9.40;4.63;;;;;;;-139.48;100.00;61774.03;5018078;28;20049;-77
2022/02/15 09:15:27;;;;;;;7.72;4.68;;;;;;;-139.48;100.00;61774.03;5032501;28;20080;-76
2022/02/15 09:18:11;;;;;;;8.68;4.20;;;;;;;-139.48;100.00;61774.03;5018664;28;20044;-77
2022/02/15 09:20:55;;;;;;;7.38;4.28;;;;;;;-139.48;100.00;61774.03;5018701;28;20052;-77
2022/02/15 09:23:39;;;;;;;6.80;3.95;;;;;;;-139.48;100.00;61774.03;5033648;28;20051;-77
2022/02/15 09:26:23;;;;;;;5.55;3.83;;;;;;;-139.48;100.00;61774.03;5003858;28;20408;-77
2022/02/15 09:29:07;;;;;;;7.40;4.20;;;;;;;-139.48;100.00;61774.03;5033298;28;20413;-77
2022/02/15 09:31:52;;;;;;;7.20;4.35;;;;;;;-139.48;100.00;61774.03;5018072;28;20481;-77
2022/02/15 09:34:36;;;;;;;8.30;4.93;;;;;;;-139.48;100.00;61774.03;5035343;28;20083;-76
2022/02/15 09:37:20;;;;;;;6.95;4.25;;;;;;;-139.48;100.00;61774.03;5021732;28;20111;-77
2022/02/15 09:40:05;;;;;;;9.18;4.90;;;;;;;-139.48;100.00;61774.03;5021765;28;20064;-77
2022/02/15 09:42:49;;;;;;;5.43;4.03;;;;;;;-139.48;100.00;61774.03;5021542;28;20056;-76
2022/02/15 09:45:34;;;;;;;8.15;4.28;;;;;;;-139.48;100.00;61774.03;5021531;28;20049;-77
2022/02/15 09:48:24;;;;;;;8.95;4.05;;;;;;;-139.48;100.00;61774.03;5021231;28;20048;-77
2022/02/15 09:51:09;;;;;;;5.15;3.80;;;;;;;-139.48;100.00;61774.03;5036561;28;20107;-77
2022/02/15 09:53:53;;;;;;;5.85;3.97;;;;;;;-139.48;100.00;61774.03;5036305;28;20569;-76
2022/02/15 09:56:37;;;;;;;8.15;4.43;;;;;;;-139.48;100.00;61774.03;5007497;28;20448;-77
2022/02/15 09:59:21;;;;;;;4.72;3.83;;;;;;;-139.48;100.00;61774.03;5036347;28;20481;-77
2022/02/15 10:02:09;;;;;;;5.93;4.22;;;;;;;-139.48;100.00;61774.03;5036246;28;20504;-76
2022/02/15 10:04:57;;;;;;;5.40;3.63;;;;;;;-139.48;100.00;61774.03;5021344;28;20052;-77
2022/02/15 10:07:54;;;;;;;5.45;4.10;;;;;;;-139.48;100.00;61774.03;5020561;28;20056;-76
2022/02/15 10:10:39;;;;;;;7.60;3.67;;;;;;;-139.48;100.00;61774.03;5021485;28;20480;-76
2022/02/15 10:13:23;;;;;;;6.25;4.10;;;;;;;-139.48;100.00;61774.03;5035638;28;20095;-76
2022/02/15 10:16:07;;;;;;;7.50;3.97;;;;;;;-139.48;100.00;61774.03;5006796;28;20044;-76
2022/02/15 10:18:58;;;;;;;6.13;4.15;;;;;;;-139.48;100.00;61774.03;5020698;28;20057;-77
2022/02/15 10:21:42;;;;;;;8.70;4.35;;;;;;;-139.48;100.00;61774.03;5020647;28;20048;-76
2022/02/15 10:24:27;;;;;;;;;;;;;;;-139.48;100.00;61774.03;5036010;28;20567;-76
2022/02/15 10:27:13;;;;;;;;;;;;;;;-139.48;100.00;61774.03;5034735;28;20011;-76
2022/02/15 10:29:58;;;;;;;8.02;3.92;;;;;;;-139.48;100.00;61774.03;5035306;28;19963;-77
2022/02/15 10:32:42;;;;;;;4.85;3.50;;;;;;;-139.48;100.00;61774.03;5034385;28;20091;-76
2022/02/15 10:35:26;;;;;;;8.35;4.03;;;;;;;-139.48;100.00;61774.03;5035336;28;20417;-76
2022/02/15 10:38:10;;;;;;;;;;;;;;;-139.48;100.00;61774.03;5006852;28;20044;-76
2022/02/15 10:40:56;;;;;;;6.70;3.83;;;;;;;-139.48;100.00;61774.03;5034257;28;19920;-76
2022/02/15 10:43:55;;;;;;;3.85;3.35;;;;;;;-139.48;100.00;61774.03;5035474;28;20091;-77
2022/02/15 10:46:40;;;;;;;11.95;3.88;;;;;;;-139.48;100.00;61774.03;5006329;28;20132;-77
2022/02/15 10:49:24;;;;;;;7.05;3.45;;;;;;;-139.48;100.00;61774.03;5035133;28;20091;-77
2022/02/15 10:52:09;;;;;;;5.93;3.40;;;;;;;-139.48;100.00;61774.03;5020592;28;20568;-76
2022/02/15 10:54:52;;;;;;;4.68;3.00;;;;;;;-139.48;100.00;61774.03;5035119;28;20048;-77
2022/02/15 10:57:36;;;;;;;6.53;2.80;;;;;;;-139.48;100.00;61774.03;5020466;28;20507;-77
2022/02/15 11:00:20;;;;;;;7.07;4.00;;;;;;;-139.48;100.00;61774.03;5019623;28;20111;-76
2022/02/15 11:03:05;;;;;;;5.28;3.20;;;;;;;-139.48;100.00;61774.03;5019818;28;20095;-77
2022/02/15 11:05:49;;;;;;;4.68;3.17;;;;;;;-139.48;100.00;61774.03;5019386;28;20056;-76
2022/02/15 11:08:36;;;;;;;4.45;3.53;;;;;;;-139.48;100.00;61774.03;5034707;28;20047;-76
2022/02/15 11:11:25;;;;;;;6.30;3.72;;;;;;;-139.48;100.00;61774.03;5019852;28;20048;-75
2022/02/15 11:14:09;;;;;;;6.80;3.53;;;;;;;-139.48;100.00;61774.03;5020827;28;20067;-77
2022/02/15 11:16:54;;;;;;;5.15;3.45;;;;;;;-139.48;100.00;61774.03;5007869;28;20069;-77
2022/02/15 11:19:38;;;;;;;8.05;4.45;;;;;;;-139.48;100.00;61774.03;5034555;28;20118;-76
2022/02/15 11:22:22;;;;;;;4.63;3.88;;;;;;;-139.48;100.00;61774.03;5019715;28;20048;-77
2022/02/15 11:25:06;;;;;;;6.70;4.50;;;;;;;-139.48;100.00;61774.03;5019683;28;20136;-76
2022/02/15 11:27:53;;;;;;;5.10;3.60;;;;;;;-139.48;100.00;61774.03;5019390;28;20136;-76
2022/02/15 11:30:49;;;;;;;5.15;3.67;;;;;;;-139.48;100.00;61774.03;5034205;28;20055;-76
2022/02/15 11:33:39;;;;;;;5.57;3.65;;;;;;;-139.48;100.00;61774.03;5034162;28;20417;-77
2022/02/15 11:36:24;;;;;;;7.13;3.90;;;;;;;-139.48;100.00;61774.03;5034349;28;20550;-76
2022/02/15 11:39:11;;;;;;;5.15;3.50;;;;;;;-139.48;100.00;61774.03;5033910;28;20092;-76
2022/02/15 11:41:57;;;;;;;4.72;3.20;;;;;;;-139.48;100.00;61774.03;5019124;28;20087;-76
2022/02/15 11:44:43;;;;;;;4.85;3.28;;;;;;;-139.48;100.00;61774.03;5018833;28;20516;-76
2022/02/15 11:47:31;;;;;;;5.32;3.00;;;;;;;-139.48;100.00;61774.03;5018476;28;20049;-76
2022/02/15 11:50:16;;;;;;;4.95;3.80;;;;;;;-139.48;100.00;61774.03;5019159;28;20052;-76
2022/02/15 11:53:00;;;;;;;6.22;3.65;;;;;;;-139.48;100.00;61774.03;5004857;28;20048;-75
2022/02/15 11:55:45;;;;;;;;;;;;;;;-139.48;100.00;61774.03;5018847;28;20087;-74
2022/02/15 11:58:30;;;;;;;4.05;2.33;;;;;;;-139.48;100.00;61774.03;5032840;28;19923;-74
2022/02/15 12:01:23;;;;;;;2.42;2.10;;;;;;;-139.48;100.00;61774.03;5018675;28;20060;-75
2022/02/15 12:04:10;;;;;;;2.83;1.75;;;;;;;-139.48;100.00;61774.03;5033605;28;20052;-74
2022/02/15 12:06:55;;;;;;;2.30;1.50;;;;;;;-139.48;100.00;61774.03;5018219;28;20052;-75
2022/02/15 12:09:38;;;;;;;2.97;1.63;;;;;;;-139.48;100.00;61774.03;5018567;28;20414;-75
2022/02/15 12:12:33;;;;;;;1.58;1.45;;;;;;;-139.48;100.00;61774.03;5033660;28;20107;-75
2022/02/15 12:15:17;;;;;;;2.45;1.27;;;;;;;-139.48;100.00;61774.03;5018480;28;20521;-74
2022/02/15 12:18:02;;;;;;;1.75;1.20;;;;;;;-139.48;100.00;61774.03;5018323;28;20485;-75
2022/02/15 12:20:51;;;;;;;2.33;1.17;;;;;;;-139.48;100.00;61774.03;5018381;28;20080;-74
2022/02/15 12:23:38;;;;;;;4.63;1.40;;;;;;;-139.48;100.00;61774.03;5033014;28;20048;-74
2022/02/15 12:26:23;;;;;;;2.10;1.13;;;;;;;-139.48;100.00;61774.03;5018077;28;20132;-75
2022/02/15 12:29:07;;;;;;;5.80;1.60;;;;;;;-139.48;100.00;61774.03;5033057;28;20145;-74
2022/02/15 12:32:01;;;;;;;2.33;1.55;;;;;;;-139.48;100.00;61774.03;5018289;28;20048;-75
2022/02/15 12:34:45;;;;;;;1.48;1.38;;;;;;;-139.48;100.00;61774.03;5032230;28;20087;-75
2022/02/15 12:37:29;;;;;;;3.25;1.88;;;;;;;-139.48;100.00;61774.03;5003967;28;20088;-75
2022/02/15 12:40:12;;;;;;;4.82;1.83;;;;;;;-139.48;100.00;61774.03;5033023;28;20051;-74
2022/02/15 12:42:57;;;;;;;3.40;1.52;;;;;;;-139.48;100.00;61774.03;5003870;28;20083;-75